createdAt,value
2022-12-17T00:00:14.944Z,5.75
2022-12-17T00:01:13.682Z,5.75
2022-12-17T00:02:13.663Z,5.724
2022-12-17T00:03:14.325Z,5.719
2022-12-17T00:04:14.215Z,5.689
2022-12-17T00:05:13.956Z,5.719
2022-12-17T00:06:12.986Z,5.703
2022-12-17T00:07:13.070Z,5.706
2022-12-17T00:08:12.850Z,5.722
2022-12-17T00:09:13.283Z,5.719
2022-12-17T00:10:13.400Z,5.711
2022-12-17T00:11:13.271Z,5.692
2022-12-17T00:12:13.152Z,5.700
2022-12-17T00:13:13.067Z,5.712
2022-12-17T00:14:12.993Z,5.715
2022-12-17T00:15:13.256Z,5.706
2022-12-17T00:16:13.374Z,5.703
2022-12-17T00:17:13.795Z,5.722
2022-12-17T00:18:13.922Z,5.739
2022-12-17T00:19:13.626Z,5.744
2022-12-17T00:20:13.581Z,5.724
2022-12-17T00:21:13.340Z,5.724
2022-12-17T00:22:13.238Z,5.710
2022-12-17T00:24:12.904Z,5.678
2022-12-17T00:26:13.426Z,5.678
2022-12-17T00:28:13.165Z,5.671
2022-12-17T00:29:13.112Z,5.659
2022-12-17T00:30:13.375Z,5.631
2022-12-17T00:31:13.541Z,5.585
2022-12-17T00:32:13.398Z,5.585
2022-12-17T00:33:13.387Z,5.565
2022-12-17T00:34:13.308Z,5.554
2022-12-17T00:35:13.436Z,5.530
2022-12-17T00:36:13.380Z,5.514
2022-12-17T00:37:13.471Z,5.5
2022-12-17T00:38:13.135Z,5.505
2022-12-17T00:39:12.815Z,5.539
2022-12-17T00:40:13.851Z,5.554
2022-12-17T00:41:13.715Z,5.579
2022-12-17T00:42:13.523Z,5.565
2022-12-17T00:43:13.399Z,5.574
2022-12-17T00:44:13.331Z,5.570
2022-12-17T00:45:13.528Z,5.579
2022-12-17T00:46:13.532Z,5.599
2022-12-17T00:47:13.536Z,5.594
2022-12-17T00:48:13.283Z,5.625
2022-12-17T00:49:12.984Z,5.590
2022-12-17T00:50:13.056Z,5.559
2022-12-17T00:51:12.819Z,5.565
2022-12-17T00:52:13.962Z,5.594
2022-12-17T00:53:13.133Z,5.619
2022-12-17T00:54:13.391Z,5.655
2022-12-17T00:55:13.660Z,5.649
2022-12-17T00:56:13.409Z,5.590
2022-12-17T00:57:13.503Z,5.610
2022-12-17T00:58:13.304Z,5.605
2022-12-17T00:59:13.339Z,5.570
2022-12-17T01:00:14.260Z,5.559
2022-12-17T01:01:15.272Z,5.539
2022-12-17T01:02:13.571Z,5.519
2022-12-17T01:03:14.035Z,5.519
2022-12-17T01:04:13.038Z,5.539
2022-12-17T01:05:13.389Z,5.565
2022-12-17T01:06:13.154Z,5.590
2022-12-17T01:07:13.509Z,5.605
2022-12-17T01:08:13.364Z,5.599
2022-12-17T01:09:13.416Z,5.631
2022-12-17T01:10:13.379Z,5.649
2022-12-17T01:11:13.420Z,5.653
2022-12-17T01:12:13.476Z,5.671
2022-12-17T01:13:13.259Z,5.699
2022-12-17T01:14:13.194Z,5.643
2022-12-17T01:15:13.361Z,5.619
2022-12-17T01:16:13.251Z,5.649
2022-12-17T01:17:13.634Z,5.625
2022-12-17T01:18:13.601Z,5.626
2022-12-17T01:19:13.498Z,5.599
2022-12-17T01:20:13.524Z,5.579
2022-12-17T01:21:13.810Z,5.579
2022-12-17T01:22:13.660Z,5.570
2022-12-17T01:23:13.383Z,5.585
2022-12-17T01:24:13.390Z,5.579
2022-12-17T01:25:13.152Z,5.599
2022-12-17T01:26:12.813Z,5.614
2022-12-17T01:27:13.643Z,5.605
2022-12-17T01:28:13.486Z,5.599
2022-12-17T01:29:13.217Z,5.610
2022-12-17T01:30:13.303Z,5.610
2022-12-17T01:31:13.281Z,5.610
2022-12-17T01:32:13.375Z,5.605
2022-12-17T01:33:13.380Z,5.610
2022-12-17T01:34:13.055Z,5.614
2022-12-17T01:35:13.219Z,5.539
2022-12-17T01:36:13.333Z,5.554
2022-12-17T01:37:13.508Z,5.527
2022-12-17T01:38:13.389Z,5.505
2022-12-17T01:39:13.289Z,5.480
2022-12-17T01:40:13.076Z,5.469
2022-12-17T01:41:13.256Z,5.440
2022-12-17T01:42:13.049Z,5.428
2022-12-17T01:43:13.389Z,5.400
2022-12-17T01:44:13.639Z,5.394
2022-12-17T01:45:14.045Z,5.367
2022-12-17T01:46:13.215Z,5.333
2022-12-17T01:47:13.309Z,5.344
2022-12-17T01:48:12.973Z,5.349
2022-12-17T01:49:12.945Z,5.374
2022-12-17T01:50:13.065Z,5.383
2022-12-17T01:51:12.835Z,5.394
2022-12-17T01:52:13.865Z,5.400
2022-12-17T01:53:14.075Z,5.409
2022-12-17T01:54:12.962Z,5.420
2022-12-17T01:55:13.921Z,5.425
2022-12-17T01:56:13.781Z,5.445
2022-12-17T01:57:13.498Z,5.425
2022-12-17T01:58:13.049Z,5.445
2022-12-17T01:59:12.885Z,5.454
2022-12-17T02:00:14.743Z,5.445
2022-12-17T02:01:14.231Z,5.434
2022-12-17T02:02:18.788Z,5.409
2022-12-17T02:03:13.335Z,5.425
2022-12-17T02:04:13.953Z,5.400
2022-12-17T02:05:13.734Z,5.403
2022-12-17T02:06:13.765Z,5.377
2022-12-17T02:07:13.739Z,5.355
2022-12-17T02:08:13.507Z,5.344
2022-12-17T02:09:13.435Z,5.355
2022-12-17T02:10:13.398Z,5.315
2022-12-17T02:11:13.214Z,5.264
2022-12-17T02:12:12.978Z,5.25
2022-12-17T02:13:12.882Z,5.239
2022-12-17T02:14:12.900Z,5.239
2022-12-17T02:15:13.411Z,5.219
2022-12-17T02:16:13.257Z,5.219
2022-12-17T02:17:13.483Z,5.199
2022-12-17T02:18:13.428Z,5.219
2022-12-17T02:19:13.617Z,5.215
2022-12-17T02:20:13.938Z,5.195
2022-12-17T02:21:13.319Z,5.195
2022-12-17T02:22:27.495Z,5.159
2022-12-17T02:23:13.468Z,5.159
2022-12-17T02:24:13.523Z,5.137
2022-12-17T02:25:13.436Z,5.178
2022-12-17T02:26:13.439Z,5.137
2022-12-17T02:27:13.355Z,5.105
2022-12-17T02:28:13.302Z,5.094
2022-12-17T02:29:13.102Z,5.085
2022-12-17T02:30:32.122Z,5.070
2022-12-17T02:31:13.799Z,5.065
2022-12-17T02:32:32.602Z,5.074
2022-12-17T02:33:13.172Z,5.059
2022-12-17T02:34:13.042Z,5.034
2022-12-17T02:35:13.016Z,5
2022-12-17T02:36:13.234Z,4.934
2022-12-17T02:37:13.240Z,4.934
2022-12-17T02:38:13.058Z,4.872
2022-12-17T02:39:13.196Z,4.691
2022-12-17T02:40:13.394Z,4.704
2022-12-17T02:41:13.293Z,4.690
2022-12-17T02:42:13.154Z,4.644
2022-12-17T02:43:13.520Z,4.610
2022-12-17T02:44:13.675Z,4.614
2022-12-17T02:45:13.805Z,4.590
2022-12-17T02:46:13.975Z,4.590
2022-12-17T02:47:13.161Z,4.574
2022-12-17T02:48:13.138Z,4.570
2022-12-17T02:49:13.316Z,4.570
2022-12-17T02:50:13.520Z,4.550
2022-12-17T02:51:13.417Z,4.534
2022-12-17T02:52:13.285Z,4.5
2022-12-17T02:53:13.387Z,4.534
2022-12-17T02:54:13.139Z,4.525
2022-12-17T02:55:13.257Z,4.510
2022-12-17T02:56:12.752Z,4.514
2022-12-17T02:57:13.632Z,4.5
2022-12-17T02:58:13.486Z,4.5
2022-12-17T02:59:13.339Z,4.474
2022-12-17T03:00:14.325Z,4.461
2022-12-17T03:01:14.172Z,4.440
2022-12-17T03:02:13.779Z,4.434
2022-12-17T03:03:13.401Z,4.425
2022-12-17T03:04:14.423Z,4.334
2022-12-17T03:05:42.773Z,4.238
2022-12-17T03:06:13.246Z,4.212
2022-12-17T03:07:12.951Z,4.195
2022-12-17T03:08:13.436Z,4.215
2022-12-17T03:09:13.874Z,4.193
2022-12-17T03:10:13.915Z,4.171
2022-12-17T03:11:13.749Z,4.155
2022-12-17T03:12:12.821Z,4.116
2022-12-17T03:13:13.754Z,4.079
2022-12-17T03:14:13.533Z,4.079
2022-12-17T03:15:14.038Z,4.094
2022-12-17T03:16:13.016Z,4.085
2022-12-17T03:17:13.349Z,4.050
2022-12-17T03:18:13.437Z,4.030
2022-12-17T03:19:13.476Z,4.019
2022-12-17T03:20:13.476Z,3.994
2022-12-17T03:21:13.416Z,3.980
2022-12-17T03:22:13.652Z,3.950
2022-12-17T03:23:13.397Z,3.960
2022-12-17T03:24:13.398Z,3.930
2022-12-17T03:25:13.432Z,3.934
2022-12-17T03:26:13.473Z,3.940
2022-12-17T03:27:13.634Z,3.940
2022-12-17T03:28:13.844Z,3.940
2022-12-17T03:29:13.993Z,3.914
2022-12-17T03:30:13.577Z,3.920
2022-12-17T03:31:13.894Z,3.924
2022-12-17T03:32:13.125Z,3.904
2022-12-17T03:33:12.814Z,3.920
2022-12-17T03:34:13.600Z,3.910
2022-12-17T03:35:13.533Z,3.890
2022-12-17T03:36:13.549Z,3.878
2022-12-17T03:37:13.621Z,3.867
2022-12-17T03:38:13.420Z,3.845
2022-12-17T03:39:13.353Z,3.861
2022-12-17T03:40:13.768Z,3.865
2022-12-17T03:41:13.569Z,3.855
2022-12-17T03:42:13.725Z,3.849
2022-12-17T03:43:14.288Z,3.832
2022-12-17T03:44:13.537Z,3.821
2022-12-17T03:45:13.763Z,3.815
2022-12-17T03:46:13.792Z,3.785
2022-12-17T03:47:13.781Z,3.779
2022-12-17T03:48:14.197Z,3.779
2022-12-17T03:49:13.349Z,3.755
2022-12-17T03:50:13.116Z,3.759
2022-12-17T03:51:13.223Z,3.740
2022-12-17T03:52:13.131Z,3.744
2022-12-17T03:53:13.154Z,3.714
2022-12-17T03:54:13.214Z,3.704
2022-12-17T03:55:13.166Z,3.689
2022-12-17T03:56:12.947Z,3.671
2022-12-17T03:57:16.092Z,3.625
2022-12-17T03:58:12.994Z,3.637
2022-12-17T03:59:13.091Z,3.625
2022-12-17T04:00:13.541Z,3.631
2022-12-17T04:01:13.955Z,3.605
2022-12-17T04:02:13.144Z,3.585
2022-12-17T04:03:13.566Z,3.579
2022-12-17T04:04:13.945Z,3.565
2022-12-17T04:05:18.305Z,3.585
2022-12-17T04:06:14.013Z,3.575
2022-12-17T04:07:13.075Z,3.599
2022-12-17T04:08:13.421Z,3.595
2022-12-17T04:09:13.503Z,3.575
2022-12-17T04:10:13.770Z,3.605
2022-12-17T04:11:13.122Z,3.605
2022-12-17T04:12:13.505Z,3.620
2022-12-17T04:13:13.221Z,3.619
2022-12-17T04:14:13.013Z,3.621
2022-12-17T04:15:13.380Z,3.615
2022-12-17T04:16:13.535Z,3.631
2022-12-17T04:17:13.606Z,3.615
2022-12-17T04:18:13.257Z,3.637
2022-12-17T04:19:12.880Z,3.631
2022-12-17T04:20:14.042Z,3.620
2022-12-17T04:21:13.552Z,3.609
2022-12-17T04:22:13.604Z,3.615
2022-12-17T04:23:13.217Z,3.609
2022-12-17T04:24:13.334Z,3.620
2022-12-17T04:25:13.389Z,3.615
2022-12-17T04:26:13.357Z,3.632
2022-12-17T04:27:13.493Z,3.631
2022-12-17T04:28:13.278Z,3.625
2022-12-17T04:29:13.159Z,3.615
2022-12-17T04:30:13.422Z,3.569
2022-12-17T04:31:13.185Z,3.585
2022-12-17T04:32:13.708Z,3.589
2022-12-17T04:33:13.814Z,3.595
2022-12-17T04:34:13.703Z,3.595
2022-12-17T04:35:14.004Z,3.575
2022-12-17T04:36:12.999Z,3.589
2022-12-17T04:37:13.749Z,3.575
2022-12-17T04:38:13.040Z,3.575
2022-12-17T04:39:13.040Z,3.575
2022-12-17T04:40:14.017Z,3.539
2022-12-17T04:41:13.302Z,3.565
2022-12-17T04:42:12.961Z,3.545
2022-12-17T04:43:13.292Z,3.539
2022-12-17T04:44:13.635Z,3.545
2022-12-17T04:45:14.186Z,3.549
2022-12-17T04:46:13.452Z,3.505
2022-12-17T04:47:13.923Z,3.404
2022-12-17T04:48:13.749Z,3.379
2022-12-17T04:49:14.000Z,3.392
2022-12-17T04:50:13.317Z,3.400
2022-12-17T04:51:13.483Z,3.326
2022-12-17T04:52:13.224Z,3.295
2022-12-17T04:53:13.014Z,3.299
2022-12-17T04:54:12.786Z,3.309
2022-12-17T04:55:13.713Z,3.305
2022-12-17T04:56:13.738Z,3.315
2022-12-17T04:57:13.570Z,3.289
2022-12-17T04:58:13.211Z,3.295
2022-12-17T04:59:32.240Z,3.265
2022-12-17T05:00:13.614Z,3.230
2022-12-17T05:01:14.042Z,3.220
2022-12-17T05:02:13.753Z,3.244
2022-12-17T05:03:13.519Z,3.275
2022-12-17T05:04:13.807Z,3.201
2022-12-17T05:05:13.256Z,3.137
2022-12-17T05:06:13.147Z,3.154
2022-12-17T05:07:13.039Z,3.142
2022-12-17T05:08:13.040Z,3.137
2022-12-17T05:09:12.985Z,3.137
2022-12-17T05:10:13.831Z,3.178
2022-12-17T05:11:13.634Z,3.160
2022-12-17T05:12:13.674Z,3.190
2022-12-17T05:13:13.778Z,3.160
2022-12-17T05:14:13.639Z,3.148
2022-12-17T05:15:14.115Z,3.165
2022-12-17T05:16:13.061Z,3.171
2022-12-17T05:17:13.121Z,3.154
2022-12-17T05:18:13.113Z,3.160
2022-12-17T05:19:12.805Z,3.184
2022-12-17T05:20:13.924Z,3.154
2022-12-17T05:21:13.988Z,3.121
2022-12-17T05:22:13.093Z,3.075
2022-12-17T05:23:12.953Z,3.039
2022-12-17T05:24:13.251Z,3.015
2022-12-17T05:25:13.697Z,2.974
2022-12-17T05:26:13.645Z,2.872
2022-12-17T05:27:13.816Z,2.792
2022-12-17T05:28:13.708Z,2.75
2022-12-17T05:29:15.996Z,2.811
2022-12-17T05:30:13.365Z,2.785
2022-12-17T05:31:13.417Z,2.812
2022-12-17T05:32:13.702Z,2.775
2022-12-17T05:33:13.605Z,2.720
2022-12-17T05:34:13.947Z,2.700
2022-12-17T05:35:13.376Z,2.691
2022-12-17T05:36:13.370Z,2.694
2022-12-17T05:37:13.288Z,2.689
2022-12-17T05:38:13.299Z,2.555
2022-12-17T05:39:13.418Z,2.505
2022-12-17T05:40:13.477Z,2.525
2022-12-17T05:41:13.463Z,2.555
2022-12-17T05:42:13.321Z,2.565
2022-12-17T05:43:13.173Z,2.575
2022-12-17T05:44:13.286Z,2.563
2022-12-17T05:45:13.630Z,2.545
2022-12-17T05:46:13.422Z,2.559
2022-12-17T05:47:13.507Z,2.535
2022-12-17T05:48:13.398Z,2.505
2022-12-17T05:49:13.447Z,2.481
2022-12-17T05:50:13.713Z,2.483
2022-12-17T05:51:13.748Z,2.460
2022-12-17T05:52:13.876Z,2.440
2022-12-17T05:53:13.231Z,2.410
2022-12-17T05:54:13.341Z,2.388
2022-12-17T05:55:13.667Z,2.396
2022-12-17T05:56:13.541Z,2.355
2022-12-17T05:57:13.124Z,2.326
2022-12-17T05:58:12.914Z,2.305
2022-12-17T05:59:13.809Z,2.285
2022-12-17T06:00:14.496Z,2.234
2022-12-17T06:01:14.250Z,2.230
2022-12-17T06:02:13.972Z,2.214
2022-12-17T06:03:13.375Z,2.200
2022-12-17T06:04:13.712Z,2.189
2022-12-17T06:05:13.136Z,2.177
2022-12-17T06:06:13.222Z,2.184
2022-12-17T06:07:13.571Z,2.165
2022-12-17T06:08:13.611Z,2.105
2022-12-17T06:09:13.828Z,2.089
2022-12-17T06:10:14.159Z,2.069
2022-12-17T06:11:13.433Z,2.039
2022-12-17T06:12:13.485Z,1.995
2022-12-17T06:13:13.375Z,1.975
2022-12-17T06:14:13.096Z,1.975
2022-12-17T06:15:13.485Z,1.945
2022-12-17T06:16:13.682Z,1.934
2022-12-17T06:17:13.604Z,1.894
2022-12-17T06:18:16.880Z,1.838
2022-12-17T06:19:13.297Z,1.861
2022-12-17T06:20:13.438Z,1.833
2022-12-17T06:21:13.571Z,1.821
2022-12-17T06:22:13.425Z,1.799
2022-12-17T06:23:13.772Z,1.789
2022-12-17T06:24:13.596Z,1.764
2022-12-17T06:25:14.172Z,1.764
2022-12-17T06:26:13.307Z,1.769
2022-12-17T06:27:13.329Z,1.75
2022-12-17T06:28:13.484Z,1.710
2022-12-17T06:29:13.409Z,1.699
2022-12-17T06:30:18.490Z,1.672
2022-12-17T06:31:13.457Z,1.654
2022-12-17T06:32:13.735Z,1.659
2022-12-17T06:33:13.806Z,1.633
2022-12-17T06:34:13.807Z,1.595
2022-12-17T06:35:13.799Z,1.610
2022-12-17T06:36:21.320Z,1.554
2022-12-17T06:37:13.660Z,1.399
2022-12-17T06:38:13.873Z,1.322
2022-12-17T06:39:13.228Z,1.315
2022-12-17T06:40:13.558Z,1.332
2022-12-17T06:41:13.459Z,1.302
2022-12-17T06:42:13.382Z,1.199
2022-12-17T06:43:13.552Z,1.136
2022-12-17T06:44:13.703Z,1.120
2022-12-17T06:45:13.944Z,1.105
2022-12-17T06:46:12.954Z,0.980
2022-12-17T06:47:14.001Z,0.899
2022-12-17T06:48:13.162Z,0.873
2022-12-17T06:49:13.152Z,0.894
2022-12-17T06:50:13.387Z,0.904
2022-12-17T06:51:13.358Z,0.935
2022-12-17T06:52:13.533Z,0.920
2022-12-17T06:53:13.234Z,0.935
2022-12-17T06:54:13.423Z,0.935
2022-12-17T06:55:13.673Z,0.935
2022-12-17T06:56:13.946Z,0.930
2022-12-17T06:57:13.743Z,0.935
2022-12-17T06:58:13.600Z,0.944
2022-12-17T06:59:13.502Z,0.949
2022-12-17T07:00:14.410Z,0.959
2022-12-17T07:01:14.205Z,0.975
2022-12-17T07:02:13.950Z,0.964
2022-12-17T07:03:14.974Z,0.975
2022-12-17T07:04:13.979Z,0.954
2022-12-17T07:05:13.475Z,0.827
2022-12-17T07:06:13.433Z,0.850
2022-12-17T07:07:13.524Z,0.856
2022-12-17T07:08:13.381Z,0.856
2022-12-17T07:09:13.636Z,0.847
2022-12-17T07:10:14.583Z,0.847
2022-12-17T07:11:13.215Z,0.818
2022-12-17T07:12:14.004Z,0.793
2022-12-17T07:13:13.073Z,0.740
2022-12-17T07:14:14.186Z,0.681
2022-12-17T07:15:13.571Z,0.615
2022-12-17T07:16:14.225Z,0.603
2022-12-17T07:17:13.459Z,0.555
2022-12-17T07:18:13.644Z,0.481
2022-12-17T07:19:13.742Z,0.483
2022-12-17T07:20:13.533Z,0.529
2022-12-17T07:21:13.777Z,0.529
2022-12-17T07:22:13.726Z,0.564
2022-12-17T07:23:14.036Z,0.569
2022-12-17T07:24:13.845Z,0.579
2022-12-17T07:25:13.423Z,0.605
2022-12-17T07:26:13.522Z,0.620
2022-12-17T07:27:13.968Z,0.605
2022-12-17T07:28:13.211Z,0.569
2022-12-17T07:29:13.473Z,0.535
2022-12-17T07:30:13.963Z,0.545
2022-12-17T07:31:13.491Z,0.529
2022-12-17T07:32:14.286Z,0.529
2022-12-17T07:33:13.273Z,0.519
2022-12-17T07:34:13.661Z,0.519
2022-12-17T07:35:13.857Z,0.540
2022-12-17T07:36:13.311Z,0.514
2022-12-17T07:37:17.425Z,0.509
2022-12-17T07:38:13.562Z,0.495
2022-12-17T07:39:14.101Z,0.479
2022-12-17T07:40:13.388Z,0.490
2022-12-17T07:41:13.542Z,0.495
2022-12-17T07:42:14.112Z,0.465
2022-12-17T07:43:13.405Z,0.455
2022-12-17T07:44:13.673Z,0.435
2022-12-17T07:45:14.331Z,0.425
2022-12-17T07:46:13.770Z,0.419
2022-12-17T07:47:13.723Z,0.425
2022-12-17T07:48:13.948Z,0.455
2022-12-17T07:49:13.475Z,0.455
2022-12-17T07:50:13.087Z,0.460
2022-12-17T07:51:13.619Z,0.460
2022-12-17T07:52:13.979Z,0.465
2022-12-17T07:53:13.635Z,0.455
2022-12-17T07:54:13.618Z,0.465
2022-12-17T07:55:18.107Z,0.444
2022-12-17T07:56:13.355Z,0.435
2022-12-17T07:57:13.763Z,0.465
2022-12-17T07:59:13.516Z,0.469
2022-12-17T08:00:14.620Z,0.449
2022-12-17T08:01:14.414Z,0.439
2022-12-17T08:02:14.397Z,0.444
2022-12-17T08:03:13.111Z,0.465
2022-12-17T08:04:13.832Z,0.460
2022-12-17T08:05:13.774Z,0.425
2022-12-17T08:06:14.059Z,0.367
2022-12-17T08:07:14.237Z,0.294
2022-12-17T08:08:13.694Z,0.356
2022-12-17T08:09:14.121Z,0.400
2022-12-17T08:10:13.808Z,0.439
2022-12-17T08:11:13.483Z,0.490
2022-12-17T08:12:13.746Z,0.485
2022-12-17T08:13:14.446Z,0.504
2022-12-17T08:14:13.672Z,0.514
2022-12-17T08:15:14.703Z,0.529
2022-12-17T08:16:14.136Z,0.564
2022-12-17T08:17:13.748Z,0.584
2022-12-17T08:18:13.641Z,0.584
2022-12-17T08:19:13.922Z,0.600
2022-12-17T08:20:14.316Z,0.625
2022-12-17T08:21:13.862Z,0.648
2022-12-17T08:22:13.260Z,0.660
2022-12-17T08:23:13.441Z,0.643
2022-12-17T08:24:14.152Z,0.660
2022-12-17T08:25:13.969Z,0.681
2022-12-17T08:26:13.391Z,0.689
2022-12-17T08:27:13.670Z,0.704
2022-12-17T08:28:41.251Z,0.730
2022-12-17T08:29:13.475Z,0.745
2022-12-17T08:30:14.176Z,0.745
2022-12-17T08:31:14.216Z,0.703
2022-12-17T08:32:13.700Z,0.722
2022-12-17T08:33:13.339Z,0.759
2022-12-17T08:34:13.773Z,0.764
2022-12-17T08:35:14.278Z,0.788
2022-12-17T08:36:13.928Z,0.800
2022-12-17T08:37:13.592Z,0.828
2022-12-17T08:38:13.951Z,0.795
2022-12-17T08:39:13.462Z,0.773
2022-12-17T08:40:13.764Z,0.754
2022-12-17T08:41:13.908Z,0.694
2022-12-17T08:42:13.136Z,0.615
2022-12-17T08:43:13.300Z,0.643
2022-12-17T08:44:13.682Z,0.600
2022-12-17T08:45:14.142Z,0.620
2022-12-17T08:46:13.227Z,0.643
2022-12-17T08:47:13.625Z,0.631
2022-12-17T08:48:14.081Z,0.703
2022-12-17T08:49:13.651Z,0.725
2022-12-17T08:50:14.249Z,0.75
2022-12-17T08:51:13.726Z,0.810
2022-12-17T08:52:13.463Z,0.856
2022-12-17T08:53:13.589Z,0.934
2022-12-17T08:54:14.188Z,0.964
2022-12-17T08:55:13.719Z,1.019
2022-12-17T08:56:13.927Z,1.044
2022-12-17T08:57:22.621Z,1.090
2022-12-17T08:58:13.290Z,1.225
2022-12-17T08:59:13.317Z,1.322
2022-12-17T09:00:14.456Z,1.394
2022-12-17T09:01:14.212Z,1.5
2022-12-17T09:02:14.027Z,1.565
2022-12-17T09:03:14.171Z,1.605
2022-12-17T09:04:14.030Z,1.639
2022-12-17T09:05:13.614Z,1.682
2022-12-17T09:06:13.656Z,1.730
2022-12-17T09:07:14.028Z,1.794
2022-12-17T09:08:13.519Z,1.799
2022-12-17T09:09:13.950Z,1.821
2022-12-17T09:10:13.560Z,1.855
2022-12-17T09:11:18.938Z,1.889
2022-12-17T09:12:13.791Z,1.914
2022-12-17T09:13:13.148Z,1.940
2022-12-17T09:14:13.261Z,1.924
2022-12-17T09:15:14.081Z,1.934
2022-12-17T09:16:13.465Z,1.960
2022-12-17T09:17:14.010Z,1.985
2022-12-17T09:18:13.352Z,2.029
2022-12-17T09:19:13.388Z,2.059
2022-12-17T09:20:14.199Z,2.085
2022-12-17T09:21:13.471Z,2.125
2022-12-17T09:22:13.958Z,2.200
2022-12-17T09:23:13.607Z,2.219
2022-12-17T09:24:13.970Z,2.234
2022-12-17T09:25:13.233Z,2.299
2022-12-17T09:26:13.296Z,2.309
2022-12-17T09:27:13.608Z,2.332
2022-12-17T09:28:13.799Z,2.372
2022-12-17T09:29:13.335Z,2.430
2022-12-17T09:30:14.413Z,2.404
2022-12-17T09:31:14.085Z,2.404
2022-12-17T09:32:13.473Z,2.434
2022-12-17T09:33:13.700Z,2.454
2022-12-17T09:34:13.737Z,2.5
2022-12-17T09:35:13.858Z,2.515
2022-12-17T09:36:13.286Z,2.5
2022-12-17T09:37:13.637Z,2.490
2022-12-17T09:38:13.827Z,2.569
2022-12-17T09:39:13.335Z,2.575
2022-12-17T09:40:14.001Z,2.545
2022-12-17T09:41:13.199Z,2.599
2022-12-17T09:42:13.625Z,2.671
2022-12-17T09:43:13.877Z,2.769
2022-12-17T09:44:13.825Z,2.724
2022-12-17T09:45:13.537Z,2.714
2022-12-17T09:46:13.593Z,2.720
2022-12-17T09:47:14.011Z,2.75
2022-12-17T09:48:13.510Z,2.799
2022-12-17T09:49:13.810Z,2.810
2022-12-17T09:50:13.518Z,2.855
2022-12-17T09:51:14.130Z,2.832
2022-12-17T09:52:13.693Z,2.867
2022-12-17T09:53:13.886Z,2.904
2022-12-17T09:54:13.109Z,2.930
2022-12-17T09:55:13.354Z,2.994
2022-12-17T09:56:13.520Z,3.039
2022-12-17T09:57:13.994Z,3.055
2022-12-17T09:58:13.384Z,3.075
2022-12-17T09:59:13.712Z,3.076
2022-12-17T10:00:14.031Z,3.130
2022-12-17T10:01:14.354Z,3.184
2022-12-17T10:02:14.215Z,3.170
2022-12-17T10:03:14.335Z,3.173
2022-12-17T10:04:14.374Z,3.177
2022-12-17T10:05:13.809Z,3.145
2022-12-17T10:06:17.891Z,3.151
2022-12-17T10:07:14.047Z,3.137
2022-12-17T10:08:13.335Z,3.135
2022-12-17T10:09:14.031Z,3.157
2022-12-17T10:10:13.786Z,3.214
2022-12-17T10:11:13.456Z,3.194
2022-12-17T10:12:13.840Z,3.194
2022-12-17T10:13:14.155Z,3.171
2022-12-17T10:14:13.668Z,3.160
2022-12-17T10:15:14.344Z,3.160
2022-12-17T10:16:14.032Z,3.165
2022-12-17T10:17:13.640Z,3.183
2022-12-17T10:18:14.321Z,3.234
2022-12-17T10:19:13.877Z,3.255
2022-12-17T10:20:14.436Z,3.289
2022-12-17T10:21:13.974Z,3.328
2022-12-17T10:22:13.315Z,3.365
2022-12-17T10:23:13.603Z,3.321
2022-12-17T10:24:18.592Z,3.311
2022-12-17T10:25:14.133Z,3.332
2022-12-17T10:26:14.213Z,3.365
2022-12-17T10:27:14.084Z,3.384
2022-12-17T10:28:13.633Z,3.390
2022-12-17T10:29:13.873Z,3.420
2022-12-17T10:30:13.632Z,3.444
2022-12-17T10:31:14.030Z,3.444
2022-12-17T10:32:13.656Z,3.460
2022-12-17T10:33:13.956Z,3.460
2022-12-17T10:34:13.438Z,3.5
2022-12-17T10:35:13.747Z,3.515
2022-12-17T10:36:13.657Z,3.545
2022-12-17T10:37:14.036Z,3.565
2022-12-17T10:38:13.809Z,3.549
2022-12-17T10:39:13.581Z,3.559
2022-12-17T10:40:13.661Z,3.599
2022-12-17T10:41:14.054Z,3.579
2022-12-17T10:42:13.738Z,3.565
2022-12-17T10:43:14.221Z,3.555
2022-12-17T10:44:14.303Z,3.589
2022-12-17T10:45:14.712Z,3.625
2022-12-17T10:46:13.589Z,3.671
2022-12-17T10:47:14.014Z,3.671
2022-12-17T10:48:13.971Z,3.724
2022-12-17T10:49:13.444Z,3.765
2022-12-17T10:50:14.150Z,3.818
2022-12-17T10:51:13.772Z,3.759
2022-12-17T10:52:14.524Z,3.759
2022-12-17T10:53:13.965Z,3.789
2022-12-17T10:54:13.627Z,3.759
2022-12-17T10:55:14.407Z,3.765
2022-12-17T10:56:14.128Z,3.795
2022-12-17T10:57:14.469Z,3.811
2022-12-17T10:58:13.077Z,3.878
2022-12-17T10:59:13.855Z,3.879
2022-12-17T11:00:14.401Z,3.888
2022-12-17T11:01:14.827Z,3.849
2022-12-17T11:02:14.046Z,3.838
2022-12-17T11:03:13.939Z,3.874
2022-12-17T11:04:14.254Z,3.888
2022-12-17T11:05:14.193Z,3.994
2022-12-17T11:06:13.748Z,4.045
2022-12-17T11:07:14.216Z,4.030
2022-12-17T11:08:14.021Z,4.014
2022-12-17T11:09:14.257Z,4
2022-12-17T11:10:14.417Z,3.984
2022-12-17T11:11:13.702Z,4
2022-12-17T11:12:13.493Z,3.990
2022-12-17T11:13:13.651Z,4.014
2022-12-17T11:14:14.422Z,4.034
2022-12-17T11:15:14.274Z,4.065
2022-12-17T11:16:13.958Z,4.094
2022-12-17T11:17:14.007Z,4.125
2022-12-17T11:18:13.345Z,4.149
2022-12-17T11:19:13.512Z,4.177
2022-12-17T11:20:14.531Z,4.178
2022-12-17T11:21:14.304Z,4.224
2022-12-17T11:22:14.074Z,4.224
2022-12-17T11:23:13.847Z,4.25
2022-12-17T11:24:19.132Z,4.276
2022-12-17T11:25:13.550Z,4.316
2022-12-17T11:26:13.750Z,4.315
2022-12-17T11:27:13.137Z,4.360
2022-12-17T11:28:13.410Z,4.350
2022-12-17T11:29:13.455Z,4.263
2022-12-17T11:30:14.535Z,4.260
2022-12-17T11:31:13.861Z,4.210
2022-12-17T11:32:13.632Z,4.159
2022-12-17T11:33:13.835Z,4.136
2022-12-17T11:34:13.024Z,4.074
2022-12-17T11:35:13.846Z,4.155
2022-12-17T11:36:13.220Z,4.149
2022-12-17T11:37:14.168Z,4.099
2022-12-17T11:38:13.768Z,4.059
2022-12-17T11:39:13.582Z,4.039
2022-12-17T11:40:19.743Z,4.034
2022-12-17T11:41:14.344Z,4.050
2022-12-17T11:42:14.144Z,4.099
2022-12-17T11:43:14.144Z,4.090
2022-12-17T11:44:13.909Z,4.074
2022-12-17T11:45:14.016Z,4.079
2022-12-17T11:46:13.499Z,4.050
2022-12-17T11:47:14.218Z,4.030
2022-12-17T11:48:13.838Z,4.085
2022-12-17T11:49:13.298Z,4.070
2022-12-17T11:50:13.760Z,4.093
2022-12-17T11:51:13.278Z,4.094
2022-12-17T11:52:13.901Z,4.116
2022-12-17T11:53:13.406Z,4.137
2022-12-17T11:54:14.128Z,4.198
2022-12-17T11:55:13.714Z,4.189
2022-12-17T11:56:14.103Z,4.210
2022-12-17T11:57:14.035Z,4.198
2022-12-17T11:58:27.582Z,4.224
2022-12-17T11:59:13.273Z,4.25
2022-12-17T12:00:14.601Z,4.199
2022-12-17T12:01:13.748Z,4.138
2022-12-17T12:02:13.136Z,4.143
2022-12-17T12:03:13.852Z,4.126
2022-12-17T12:04:14.471Z,4.114
2022-12-17T12:05:14.513Z,4.074
2022-12-17T12:06:13.743Z,4.117
2022-12-17T12:07:13.178Z,4.195
2022-12-17T12:08:13.643Z,4.229
2022-12-17T12:09:13.271Z,4.244
2022-12-17T12:10:13.954Z,4.210
2022-12-17T12:11:13.246Z,4.224
2022-12-17T12:12:13.979Z,4.204
2022-12-17T12:13:13.434Z,4.193
2022-12-17T12:14:13.910Z,4.224
2022-12-17T12:15:13.808Z,4.255
2022-12-17T12:16:14.114Z,4.244
2022-12-17T12:17:14.424Z,4.25
2022-12-17T12:18:13.825Z,4.255
2022-12-17T12:19:13.335Z,4.235
2022-12-17T12:20:13.984Z,4.199
2022-12-17T12:21:13.779Z,4.215
2022-12-17T12:22:35.275Z,4.219
2022-12-17T12:23:13.563Z,4.210
2022-12-17T12:24:14.521Z,4.260
2022-12-17T12:25:14.580Z,4.310
2022-12-17T12:26:13.963Z,4.327
2022-12-17T12:27:13.361Z,4.344
2022-12-17T12:28:13.704Z,4.310
2022-12-17T12:29:13.406Z,4.264
2022-12-17T12:30:14.629Z,4.25
2022-12-17T12:31:14.277Z,4.255
2022-12-17T12:32:13.970Z,4.327
2022-12-17T12:33:13.578Z,4.300
2022-12-17T12:34:14.148Z,4.304
2022-12-17T12:35:13.756Z,4.349
2022-12-17T12:36:13.576Z,4.361
2022-12-17T12:37:14.360Z,4.339
2022-12-17T12:38:14.016Z,4.309
2022-12-17T12:39:13.414Z,4.300
2022-12-17T12:40:14.523Z,4.361
2022-12-17T12:41:13.338Z,4.434
2022-12-17T12:42:14.068Z,4.460
2022-12-17T12:43:13.615Z,4.454
2022-12-17T12:44:13.751Z,4.450
2022-12-17T12:45:13.697Z,4.453
2022-12-17T12:46:13.562Z,4.434
2022-12-17T12:47:13.042Z,4.478
2022-12-17T12:48:13.598Z,4.481
2022-12-17T12:49:14.111Z,4.472
2022-12-17T12:50:14.055Z,4.475
2022-12-17T12:51:13.455Z,4.539
2022-12-17T12:52:13.998Z,4.548
2022-12-17T12:53:13.605Z,4.550
2022-12-17T12:54:14.239Z,4.614
2022-12-17T12:55:14.194Z,4.585
2022-12-17T12:56:13.779Z,4.606
2022-12-17T12:57:14.389Z,4.670